General Heriberto Jara International Airport
MMVR : now visible

Airfield :











YOU CAN JOIN US ON...

 
LOGIN :

Register | Disclaimer

   EN    FR    IT 

 









Legend :    VFR   Marginal VFR   IFR   Intensive IFR   Very Intensive IFR
Visi :
Ceiling :
>= 8 km
>= 3000ft
5 to 8 km
1000 to 3000 ft
1500m to 5 km
500 to 1000 ft
800 to 1500m
200 to 500 ft
< 800m
< 200 ft
Symbols :   Thunderstorms  Fog  Heavy snow  Heavy precipitations  Wind > 20 kt






- Airport Elevation : 90 ft
- IATA code : VER


MMVR - General Heriberto Jara International

CURRENT METAR :
  • 061640Z 16003KT 5SM SKC 28/21 A3009 RMK HZY ISOL CU

EXPIRED METARs :
  • 061540Z 00000KT 5SM SKC 26/21 A3009 RMK HZY
  • 061444Z 00000KT 5SM FEW015 25/21 A3008 RMK SLP159 52016 957 8/100 BR HZ

TAF TAF MMVR
Valid from the 06 at 18:00 until the 07 at 18:00 UTC


061637Z 0618/0718 04010KT 5SM HZ SCT030 TX29/0620Z TN20/0712Z
FM070300 34010KT 4SM HZ OVC020
FM071200 36015G25KT 4SM HZ SCT020 OVC070
FM071500 34015G25KT 4SM HZ BKN070



MET'MAP, your aeronautical weather chart ! - Copyright ORBIFLY December 2007 - Disclaimer

ORBIFLY MET'MAP TEAM :

Programming & Development : Alexandra Zaïnal
Concept & original design : Baudouin d'Aumeries
Assistance for programming : Marc-Olivier Méhu
Technical & hardware support : Manuel Goepfert

Contact : metmap@orbifly.com




SOURCES & CREDITS :

   NOAA       Earth
Advisory